Time;durP1;ratioP1;P1;durP2;ratioP2;P2;SDS_P1;SDS_P2;PMS_P1;PMS_P2;Temp;Humidity;BMP_temperature;BMP_pressure;BME280_temperature;BME280_humidity;BME280_pressure;Samples;Min_cycle;Max_cycle;Signal;HPM_P1;HPM_P2
2021/05/03 00:01:29;;;;;;;19.50;14.60;;;21.40;99.90;;;;;;5055467;28;20491;-82
2021/05/03 00:03:56;;;;;;;21.50;15.10;;;20.70;99.90;;;;;;5035980;28;20391;-82
2021/05/03 00:06:23;;;;;;;20.60;15.90;;;20.00;99.90;;;;;;5058962;28;20397;-81
2021/05/03 00:08:50;;;;;;;22.92;17.23;;;19.50;99.90;;;;;;5059714;28;20918;-81
2021/05/03 00:11:17;;;;;;;23.85;17.45;;;19.30;99.90;;;;;;5056546;28;20422;-80
2021/05/03 00:13:44;;;;;;;23.92;19.52;;;19.10;99.90;;;;;;5056272;28;20407;-81
2021/05/03 00:16:11;;;;;;;25.33;19.10;;;19.00;99.90;;;;;;5058008;28;20389;-81
2021/05/03 00:18:38;;;;;;;24.00;18.98;;;18.90;99.90;;;;;;5064024;28;20431;-81
2021/05/03 00:21:05;;;;;;;22.15;18.52;;;18.90;99.90;;;;;;5049618;28;20392;-84
2021/05/03 00:23:31;;;;;;;22.00;17.02;;;18.90;99.90;;;;;;5051228;28;20523;-81
2021/05/03 00:25:58;;;;;;;21.75;16.75;;;18.90;99.90;;;;;;5052314;28;20395;-82
2021/05/03 00:28:25;;;;;;;22.90;16.35;;;18.90;99.90;;;;;;5051010;28;20445;-80
2021/05/03 00:30:52;;;;;;;24.13;16.37;;;18.90;99.90;;;;;;5048140;28;20399;-81
2021/05/03 00:33:19;;;;;;;23.63;17.07;;;18.90;99.90;;;;;;5050629;28;20511;-82
2021/05/03 00:35:46;;;;;;;22.87;17.30;;;18.90;99.90;;;;;;5049773;28;20379;-82
2021/05/03 00:38:13;;;;;;;21.37;17.13;;;18.90;99.90;;;;;;5048503;28;20398;-80
2021/05/03 00:40:40;;;;;;;24.35;17.83;;;18.90;99.90;;;;;;5049251;28;20778;-81
2021/05/03 00:43:07;;;;;;;25.23;17.67;;;19.00;99.90;;;;;;5048213;28;20422;-81
2021/05/03 00:45:34;;;;;;;25.33;17.38;;;19.00;99.90;;;;;;5047738;28;20391;-81
2021/05/03 00:48:02;;;;;;;24.67;17.98;;;19.10;99.90;;;;;;5048782;28;20410;-81
2021/05/03 00:50:30;;;;;;;24.05;17.55;;;19.00;99.90;;;;;;5046819;28;20402;-80
2021/05/03 00:52:57;;;;;;;26.90;18.50;;;19.00;99.90;;;;;;5046326;28;20415;-80
2021/05/03 00:55:27;;;;;;;21.13;14.75;;;19.10;99.90;;;;;;5045684;28;20814;-82
2021/05/03 00:57:54;;;;;;;19.20;15.38;;;19.10;99.90;;;;;;5046178;28;20388;-82
2021/05/03 01:00:23;;;;;;;22.73;16.77;;;19.10;99.90;;;;;;5037950;28;21152;-81
2021/05/03 01:02:50;;;;;;;20.02;15.68;;;19.20;99.90;;;;;;5051348;28;20404;-81
2021/05/03 01:05:19;;;;;;;22.13;15.30;;;19.30;99.90;;;;;;5080853;28;20418;-82
2021/05/03 01:07:48;;;;;;;21.33;15.45;;;19.40;99.90;;;;;;5046147;28;20395;-82
2021/05/03 01:10:15;;;;;;;19.67;14.60;;;19.50;99.90;;;;;;5047208;28;20407;-82
2021/05/03 01:12:43;;;;;;;19.75;14.88;;;19.60;99.90;;;;;;5048447;28;20497;-81
2021/05/03 01:15:12;;;;;;;19.17;14.82;;;19.70;99.90;;;;;;5047764;28;20388;-80
2021/05/03 01:17:41;;;;;;;22.70;15.73;;;19.70;99.90;;;;;;5048333;28;20376;-80
2021/05/03 01:20:17;;;;;;;19.65;15.02;;;19.80;99.90;;;;;;5045960;28;20859;-81
2021/05/03 01:22:43;;;;;;;21.75;14.02;;;19.80;99.90;;;;;;5048131;28;20410;-80
2021/05/03 01:25:12;;;;;;;22.50;14.38;;;19.90;99.90;;;;;;5045743;28;20497;-81
2021/05/03 01:27:39;;;;;;;19.97;13.87;;;20.00;99.90;;;;;;5047327;28;20434;-80
2021/05/03 01:30:10;;;;;;;19.17;13.88;;;20.10;99.90;;;;;;5048159;28;20375;-83
2021/05/03 01:32:38;;;;;;;20.75;14.48;;;20.20;99.90;;;;;;5047393;28;20427;-81
2021/05/03 01:35:06;;;;;;;18.23;14.20;;;20.20;99.90;;;;;;5047998;28;20848;-81
2021/05/03 01:37:34;;;;;;;18.77;14.15;;;20.20;99.90;;;;;;5044404;28;20491;-82
2021/05/03 01:40:01;;;;;;;20.50;13.80;;;20.30;99.90;;;;;;5045855;28;20423;-82
2021/05/03 01:42:28;;;;;;;16.52;13.02;;;20.30;99.90;;;;;;5046688;28;20410;-83
2021/05/03 01:45:00;;;;;;;17.52;12.82;;;20.30;99.90;;;;;;5043798;28;20419;-81
2021/05/03 01:47:28;;;;;;;16.50;11.95;;;20.30;99.90;;;;;;5063739;28;20398;-81
2021/05/03 01:49:55;;;;;;;14.63;11.55;;;20.30;99.90;;;;;;5056179;28;20525;-81
2021/05/03 01:52:22;;;;;;;15.43;11.30;;;20.30;99.90;;;;;;5079336;28;20408;-80
2021/05/03 01:54:51;;;;;;;16.00;11.10;;;20.50;99.90;;;;;;5046705;28;20393;-80
2021/05/03 01:57:20;;;;;;;14.10;10.55;;;20.40;99.90;;;;;;5048530;28;20404;-81
2021/05/03 01:59:49;;;;;;;14.13;10.30;;;20.40;99.90;;;;;;5079115;28;20400;-81
2021/05/03 02:02:16;;;;;;;12.65;8.85;;;20.50;99.90;;;;;;5044206;28;20415;-80
2021/05/03 02:04:43;;;;;;;11.30;8.07;;;20.60;99.90;;;;;;5049933;28;20431;-81
2021/05/03 02:07:13;;;;;;;11.65;8.15;;;20.60;99.90;;;;;;5048018;28;20403;-82
2021/05/03 02:09:45;;;;;;;12.25;7.03;;;20.70;99.90;;;;;;5051519;28;21256;-81
2021/05/03 02:12:13;;;;;;;10.60;7.30;;;20.80;99.90;;;;;;5052211;28;20434;-81
2021/05/03 02:14:42;;;;;;;11.77;7.38;;;20.90;99.90;;;;;;5059201;28;20399;-81
2021/05/03 02:17:11;;;;;;;10.90;7.35;;;21.00;99.90;;;;;;5051302;28;20474;-81
2021/05/03 02:19:38;;;;;;;9.95;7.18;;;21.10;99.90;;;;;;5051941;28;20800;-81
2021/05/03 02:22:05;;;;;;;9.90;6.80;;;21.20;99.90;;;;;;5051080;28;20383;-81
2021/05/03 02:24:32;;;;;;;10.13;7.03;;;21.30;99.90;;;;;;5051353;28;20380;-81
2021/05/03 02:26:59;;;;;;;11.80;7.45;;;21.40;99.90;;;;;;5043935;28;20859;-82
2021/05/03 02:29:26;;;;;;;8.43;7.07;;;21.30;99.90;;;;;;5041387;28;20392;-81
2021/05/03 02:31:53;;;;;;;8.77;7.07;;;21.30;99.90;;;;;;5051708;28;20451;-81
2021/05/03 02:34:20;;;;;;;10.25;6.22;;;21.30;99.90;;;;;;5050956;28;20400;-82
2021/05/03 02:36:48;;;;;;;11.00;7.07;;;21.30;99.90;;;;;;5051638;28;20387;-81
2021/05/03 02:39:15;;;;;;;8.27;6.15;;;21.40;99.90;;;;;;5051560;28;20402;-82
2021/05/03 02:41:43;;;;;;;6.88;6.00;;;21.30;99.90;;;;;;5057299;28;20378;-82
2021/05/03 02:44:10;;;;;;;7.53;5.82;;;21.40;99.90;;;;;;5058624;28;20917;-82
2021/05/03 02:46:37;;;;;;;8.23;6.18;;;21.40;99.90;;;;;;5050263;28;20441;-82
2021/05/03 02:49:04;;;;;;;8.18;6.13;;;21.40;99.90;;;;;;5065000;28;20482;-81
2021/05/03 02:51:32;;;;;;;9.00;6.05;;;21.30;99.90;;;;;;5057621;28;20376;-82
2021/05/03 02:54:00;;;;;;;8.35;5.93;;;21.30;99.90;;;;;;5051375;28;20442;-82
2021/05/03 02:56:27;;;;;;;8.45;6.60;;;21.30;99.90;;;;;;5051669;28;20917;-83
2021/05/03 02:58:53;;;;;;;8.52;5.68;;;21.30;99.90;;;;;;5051259;28;20368;-81
2021/05/03 03:01:20;;;;;;;8.05;6.30;;;21.40;99.90;;;;;;5051196;28;20859;-81
2021/05/03 03:03:47;;;;;;;7.07;5.43;;;21.40;99.90;;;;;;5050749;28;20388;-81
2021/05/03 03:06:14;;;;;;;7.10;5.07;;;21.40;99.90;;;;;;5051286;28;20380;-81
2021/05/03 03:08:42;;;;;;;7.85;4.50;;;21.50;99.90;;;;;;5050665;28;20368;-81
2021/05/03 03:11:09;;;;;;;7.18;4.50;;;21.60;99.90;;;;;;5049236;28;20404;-83
2021/05/03 03:13:36;;;;;;;4.10;3.60;;;21.70;99.90;;;;;;5051543;28;20400;-83
2021/05/03 03:16:03;;;;;;;4.50;3.50;;;21.80;99.90;;;;;;5050551;28;20372;-82
2021/05/03 03:18:30;;;;;;;4.03;3.63;;;21.80;99.20;;;;;;5050214;28;20398;-82
2021/05/03 03:20:56;;;;;;;4.43;3.50;;;21.90;99.30;;;;;;5050193;28;20735;-81
2021/05/03 03:23:23;;;;;;;4.68;4.10;;;22.00;98.90;;;;;;5050742;28;20380;-80
2021/05/03 03:25:50;;;;;;;4.53;3.92;;;22.00;99.00;;;;;;5051024;28;20379;-82
2021/05/03 03:28:17;;;;;;;4.68;3.75;;;22.00;98.80;;;;;;5050746;28;20462;-82
2021/05/03 03:30:44;;;;;;;5.23;3.77;;;22.00;98.10;;;;;;5050738;28;20782;-82
2021/05/03 03:33:11;;;;;;;6.33;3.57;;;22.00;98.80;;;;;;5050704;28;20403;-82
2021/05/03 03:35:38;;;;;;;3.90;3.50;;;22.10;98.90;;;;;;5050700;28;20387;-81
2021/05/03 03:38:05;;;;;;;4.15;3.17;;;22.10;97.10;;;;;;5050358;28;20881;-83
2021/05/03 03:40:32;;;;;;;5.65;2.90;;;22.10;97.50;;;;;;5050757;28;20878;-82
2021/05/03 03:42:59;;;;;;;5.18;3.20;;;22.00;98.00;;;;;;5051685;28;20865;-82
2021/05/03 03:45:26;;;;;;;5.57;3.60;;;22.10;97.50;;;;;;5050855;28;20379;-81
2021/05/03 03:47:53;;;;;;;3.67;3.25;;;22.20;97.80;;;;;;5049471;28;20380;-82
2021/05/03 03:50:20;;;;;;;5.25;3.47;;;22.20;97.60;;;;;;5050348;28;20363;-82
2021/05/03 03:52:47;;;;;;;5.68;3.55;;;22.20;97.10;;;;;;5050300;28;20459;-82
2021/05/03 03:55:14;;;;;;;7.65;3.80;;;22.10;97.30;;;;;;5050263;28;20743;-81
2021/05/03 03:57:41;;;;;;;4.43;3.58;;;22.10;97.70;;;;;;5050316;28;20394;-82
2021/05/03 04:00:09;;;;;;;4.65;3.55;;;22.20;97.50;;;;;;5049882;28;20573;-82
2021/05/03 04:02:36;;;;;;;4.07;3.30;;;22.10;97.40;;;;;;5050116;28;20384;-81
2021/05/03 04:05:23;;;;;;;4.68;2.75;;;22.10;98.10;;;;;;5049872;28;20453;-82
2021/05/03 04:21:16;;;;;;;3.40;2.10;;;22.30;95.40;;;;;;5049374;28;20387;-81
2021/05/03 04:23:59;;;;;;;2.97;1.60;;;22.20;95.90;;;;;;5049955;28;20387;-81
2021/05/03 04:26:26;;;;;;;2.40;1.80;;;22.20;94.90;;;;;;5049825;28;20882;-82
2021/05/03 04:28:54;;;;;;;1.80;1.52;;;22.10;94.80;;;;;;5062702;28;20975;-81
2021/05/03 04:31:22;;;;;;;3.10;1.77;;;22.10;94.80;;;;;;5057240;28;20431;-81
2021/05/03 04:33:50;;;;;;;2.05;1.55;;;22.10;94.90;;;;;;5048481;28;20728;-82
2021/05/03 04:36:17;;;;;;;2.65;1.63;;;22.10;95.90;;;;;;5040107;28;21142;-81
2021/05/03 04:38:44;;;;;;;2.65;1.50;;;22.10;95.60;;;;;;5049134;28;20479;-82
2021/05/03 04:41:11;;;;;;;3.88;2.20;;;22.00;95.40;;;;;;5048897;28;20380;-81
2021/05/03 04:43:38;;;;;;;2.42;2.00;;;22.10;95.20;;;;;;5049666;28;20421;-82
2021/05/03 04:46:06;;;;;;;2.35;2.00;;;22.20;94.80;;;;;;5049125;28;20380;-81
2021/05/03 04:48:33;;;;;;;2.05;1.85;;;22.20;94.30;;;;;;5049232;28;20518;-79
2021/05/03 04:51:00;;;;;;;5.25;1.98;;;22.30;94.20;;;;;;5049012;28;20391;-80
2021/05/03 04:53:28;;;;;;;3.20;2.00;;;22.20;93.90;;;;;;5048310;28;20407;-80
2021/05/03 04:55:55;;;;;;;2.35;1.60;;;22.20;93.90;;;;;;5048760;28;21084;-79
2021/05/03 04:58:22;;;;;;;3.05;1.80;;;22.20;94.10;;;;;;5048884;28;20384;-80
2021/05/03 05:00:49;;;;;;;3.13;1.90;;;22.00;94.30;;;;;;5049017;28;20375;-81
2021/05/03 05:03:16;;;;;;;4.25;1.77;;;22.00;93.90;;;;;;5048727;28;20390;-80
2021/05/03 05:05:45;;;;;;;3.08;1.80;;;21.90;94.60;;;;;;5048647;28;20368;-80
2021/05/03 05:08:12;;;;;;;3.70;1.90;;;22.00;93.70;;;;;;5050719;28;20391;-80
2021/05/03 05:10:39;;;;;;;3.27;1.70;;;22.00;93.80;;;;;;5048441;28;20388;-80
2021/05/03 05:13:06;;;;;;;2.23;1.60;;;21.90;93.70;;;;;;5047822;28;20422;-80
2021/05/03 05:15:33;;;;;;;3.20;1.70;;;21.90;93.90;;;;;;5048872;28;20376;-80
2021/05/03 05:18:00;;;;;;;1.50;1.40;;;21.80;94.50;;;;;;5048416;28;20479;-81
2021/05/03 05:20:27;;;;;;;1.60;1.50;;;21.80;94.50;;;;;;5049074;28;20387;-81
2021/05/03 05:22:54;;;;;;;2.40;1.90;;;21.80;94.50;;;;;;5063948;28;20389;-82
2021/05/03 05:25:21;;;;;;;3.03;1.70;;;21.70;94.40;;;;;;5066328;28;20382;-82
2021/05/03 05:27:49;;;;;;;3.15;1.88;;;21.70;95.30;;;;;;5049426;28;20395;-81
2021/05/03 05:30:16;;;;;;;2.50;1.67;;;21.70;95.80;;;;;;5049269;28;20387;-81
2021/05/03 05:32:44;;;;;;;2.83;1.87;;;21.60;95.70;;;;;;5047566;28;20555;-80
2021/05/03 05:35:11;;;;;;;3.33;1.60;;;21.60;95.80;;;;;;5047816;28;20393;-80
2021/05/03 05:37:38;;;;;;;4.13;2.67;;;21.50;95.00;;;;;;5048405;28;20747;-81
2021/05/03 05:40:06;;;;;;;4.30;3.75;;;21.50;96.20;;;;;;5048361;28;20407;-79
2021/05/03 05:42:34;;;;;;;6.88;5.72;;;21.40;97.10;;;;;;5048550;28;20414;-80
2021/05/03 05:45:01;;;;;;;7.72;5.00;;;21.40;98.90;;;;;;5048465;28;20372;-80
2021/05/03 05:47:28;;;;;;;5.82;4.78;;;21.40;99.40;;;;;;5048546;28;20387;-80
2021/05/03 05:49:55;;;;;;;6.00;4.68;;;21.30;99.90;;;;;;5048561;28;20384;-80
2021/05/03 05:52:22;;;;;;;3.58;2.85;;;21.20;99.90;;;;;;5048068;28;20396;-79
2021/05/03 05:54:49;;;;;;;4.50;3.00;;;21.20;99.90;;;;;;5055123;28;20773;-79
2021/05/03 05:57:16;;;;;;;3.08;2.65;;;21.20;99.90;;;;;;5061186;28;20373;-81
2021/05/03 05:59:43;;;;;;;5.00;2.30;;;21.20;99.90;;;;;;5068911;28;20383;-82
2021/05/03 06:02:10;;;;;;;5.07;2.00;;;21.10;99.90;;;;;;5047292;28;20487;-81
2021/05/03 06:04:37;;;;;;;2.45;1.80;;;21.10;99.90;;;;;;5051720;28;20483;-80
2021/05/03 06:07:05;;;;;;;3.22;2.00;;;21.10;99.90;;;;;;5046166;28;20930;-81
2021/05/03 06:09:31;;;;;;;3.30;1.60;;;21.00;99.90;;;;;;5047267;28;20887;-81
2021/05/03 06:11:58;;;;;;;2.17;1.52;;;21.00;99.90;;;;;;5048503;28;20395;-81
2021/05/03 06:14:26;;;;;;;2.30;1.50;;;20.80;99.90;;;;;;5047986;28;20539;-81
2021/05/03 06:16:53;;;;;;;2.72;1.33;;;20.70;99.90;;;;;;5047284;28;20478;-80
2021/05/03 06:19:20;;;;;;;3.30;1.20;;;20.60;99.90;;;;;;5046256;28;20804;-81
2021/05/03 06:21:46;;;;;;;2.33;1.15;;;20.50;99.90;;;;;;5046116;28;20414;-80
2021/05/03 06:24:13;;;;;;;1.15;1.02;;;20.40;99.90;;;;;;5047974;28;20464;-81
2021/05/03 06:26:40;;;;;;;1.92;1.10;;;20.30;99.90;;;;;;5046575;28;20473;-79
2021/05/03 06:29:07;;;;;;;2.42;1.38;;;20.30;99.90;;;;;;5049577;28;20404;-79
2021/05/03 06:31:34;;;;;;;1.35;1.10;;;20.30;99.90;;;;;;5048482;28;20459;-80
2021/05/03 06:34:01;;;;;;;2.92;1.10;;;20.20;99.90;;;;;;5048234;28;20410;-79
2021/05/03 06:36:28;;;;;;;2.40;1.25;;;20.10;99.90;;;;;;5047018;28;20382;-79
2021/05/03 06:38:55;;;;;;;4.22;1.20;;;20.10;99.90;;;;;;5046926;28;20384;-80
2021/05/03 06:41:22;;;;;;;2.30;1.30;;;20.00;99.90;;;;;;5048901;28;20390;-78
2021/05/03 06:43:49;;;;;;;1.42;1.08;;;19.90;99.90;;;;;;5050928;28;20393;-80
2021/05/03 06:46:16;;;;;;;1.83;1.15;;;19.80;99.90;;;;;;5051648;28;20457;-80
2021/05/03 06:48:43;;;;;;;3.30;1.30;;;19.70;99.90;;;;;;5051892;28;20398;-79
2021/05/03 06:51:10;;;;;;;2.00;1.40;;;19.60;99.90;;;;;;5050860;28;20751;-78
2021/05/03 06:53:37;;;;;;;4.30;1.50;;;19.50;99.90;;;;;;5052057;28;20404;-79
2021/05/03 06:56:04;;;;;;;2.75;1.35;;;19.40;99.90;;;;;;5052120;28;20392;-79
2021/05/03 06:58:31;;;;;;;3.23;1.50;;;19.40;99.90;;;;;;5052356;28;20438;-79
2021/05/03 07:00:58;;;;;;;3.40;1.53;;;19.20;99.90;;;;;;5054815;28;20747;-81
2021/05/03 07:03:25;;;;;;;1.85;1.38;;;19.10;99.90;;;;;;5054941;28;20479;-80
2021/05/03 07:05:52;;;;;;;2.70;1.40;;;19.10;99.90;;;;;;5054788;28;20449;-81
2021/05/03 07:08:24;;;;;;;2.28;1.45;;;19.00;99.90;;;;;;5053641;28;20375;-80
2021/05/03 07:10:52;;;;;;;2.70;1.70;;;18.90;99.90;;;;;;5033007;28;20467;-80
2021/05/03 07:13:20;;;;;;;2.95;1.70;;;19.00;99.90;;;;;;5038688;28;20433;-80
2021/05/03 07:15:47;;;;;;;4.07;1.67;;;19.00;99.90;;;;;;5046223;28;20917;-80
2021/05/03 07:18:14;;;;;;;4.50;2.05;;;18.90;99.90;;;;;;5045419;28;20403;-79
2021/05/03 07:20:41;;;;;;;3.33;1.77;;;18.90;99.90;;;;;;5047226;28;20809;-78
2021/05/03 07:23:09;;;;;;;2.28;1.65;;;18.80;99.90;;;;;;5046715;28;20404;-79
2021/05/03 07:25:39;;;;;;;1.88;1.58;;;18.70;99.90;;;;;;5046764;28;20409;-80
2021/05/03 07:28:06;;;;;;;4.90;1.70;;;18.70;99.90;;;;;;5045957;28;20403;-79
2021/05/03 07:30:34;;;;;;;4.27;1.90;;;18.60;99.90;;;;;;5049031;28;21112;-78
2021/05/03 07:33:01;;;;;;;3.20;1.58;;;18.70;99.90;;;;;;5044489;28;20498;-79
2021/05/03 07:35:28;;;;;;;4.20;1.98;;;18.60;99.90;;;;;;5043044;28;20396;-79
2021/05/03 07:37:55;;;;;;;4.53;1.77;;;18.50;99.90;;;;;;5044968;28;20401;-79
2021/05/03 07:40:22;;;;;;;4.03;1.75;;;18.50;99.90;;;;;;5046527;28;20402;-81
2021/05/03 07:42:49;;;;;;;4.80;2.00;;;18.50;99.90;;;;;;5042698;28;20906;-80
2021/05/03 07:45:19;;;;;;;3.83;1.95;;;18.50;99.90;;;;;;5043864;28;20395;-80
2021/05/03 07:47:46;;;;;;;9.20;2.00;;;18.50;99.90;;;;;;5043133;28;20879;-79
2021/05/03 07:50:14;;;;;;;3.08;1.80;;;18.40;99.90;;;;;;5042594;28;20491;-79
2021/05/03 07:52:41;;;;;;;4.15;1.70;;;18.40;99.90;;;;;;5043797;28;20498;-79
2021/05/03 07:55:12;;;;;;;5.88;1.80;;;18.40;99.90;;;;;;5042349;28;20471;-80
2021/05/03 07:57:39;;;;;;;3.72;2.00;;;18.30;99.90;;;;;;5042304;28;20464;-79
2021/05/03 08:00:07;;;;;;;3.65;1.67;;;18.20;99.90;;;;;;5039883;28;20390;-79
2021/05/03 08:02:34;;;;;;;5.20;2.13;;;18.20;99.90;;;;;;5044104;28;20398;-80
2021/05/03 08:05:02;;;;;;;2.63;1.85;;;18.10;99.90;;;;;;5042722;28;20758;-78
2021/05/03 08:07:29;;;;;;;3.55;1.88;;;18.10;99.90;;;;;;5044428;28;20400;-78
2021/05/03 08:09:56;;;;;;;5.13;2.10;;;18.10;99.90;;;;;;5040309;28;20512;-79
2021/05/03 08:12:24;;;;;;;5.20;2.20;;;18.10;99.90;;;;;;5030766;28;20489;-79
2021/05/03 08:14:53;;;;;;;4.57;1.90;;;18.00;99.90;;;;;;5040144;28;20443;-79
2021/05/03 08:17:20;;;;;;;4.70;1.80;;;18.10;99.90;;;;;;5043058;28;20391;-79
2021/05/03 08:19:47;;;;;;;5.32;1.90;;;18.00;99.90;;;;;;5039751;28;20497;-79
2021/05/03 08:22:15;;;;;;;4.85;1.98;;;18.10;99.90;;;;;;5042744;28;20506;-79
2021/05/03 08:24:42;;;;;;;4.10;1.80;;;18.00;99.90;;;;;;5044025;28;20495;-80
2021/05/03 08:27:08;;;;;;;3.40;2.00;;;18.00;99.90;;;;;;5045692;28;20499;-80
2021/05/03 08:29:36;;;;;;;3.67;1.70;;;18.00;99.90;;;;;;5045021;28;20401;-80
2021/05/03 08:32:04;;;;;;;5.43;1.70;;;17.90;99.90;;;;;;5039861;28;20396;-80
2021/05/03 08:34:31;;;;;;;7.03;2.03;;;18.00;99.90;;;;;;5044875;28;20485;-80
2021/05/03 08:36:58;;;;;;;3.20;1.70;;;18.00;99.90;;;;;;5045334;28;20515;-79
2021/05/03 08:39:26;;;;;;;4.85;1.75;;;17.90;99.90;;;;;;5042640;28;21066;-80
2021/05/03 08:41:57;;;;;;;4.70;1.80;;;17.80;99.90;;;;;;5041118;28;20434;-80
2021/05/03 08:44:26;;;;;;;4.20;1.73;;;17.80;99.90;;;;;;5044599;28;20442;-79
2021/05/03 08:46:54;;;;;;;7.97;1.92;;;17.70;99.90;;;;;;5045002;28;20408;-80
2021/05/03 08:49:34;;;;;;;6.97;2.13;;;17.70;99.90;;;;;;5041626;28;20763;-78
2021/05/03 08:54:40;;;;;;;5.00;1.90;;;17.60;99.90;;;;;;5042864;28;20411;-80
2021/05/03 08:57:13;;;;;;;5.28;1.83;;;17.60;99.90;;;;;;5045957;28;20395;-79
2021/05/03 08:59:43;;;;;;;4.63;1.90;;;17.60;99.90;;;;;;5046389;28;21376;-79
2021/05/03 09:02:13;;;;;;;5.67;2.07;;;17.50;99.90;;;;;;5044674;28;20478;-80
2021/05/03 09:04:40;;;;;;;5.78;1.77;;;17.50;99.90;;;;;;5049018;28;20431;-79
2021/05/03 09:07:19;;;;;;;5.15;1.77;;;17.40;99.90;;;;;;5047122;28;20770;-80
2021/05/03 09:09:54;;;;;;;6.00;1.88;;;17.30;99.90;;;;;;5040311;28;20487;-79
2021/05/03 09:12:26;;;;;;;6.60;1.90;;;17.30;99.90;;;;;;5043587;28;22104;-80
2021/05/03 09:15:02;;;;;;;5.57;1.95;;;17.40;99.90;;;;;;5038010;28;20407;-78
2021/05/03 09:17:35;;;;;;;5.90;1.95;;;17.40;99.90;;;;;;5042913;28;20886;-80
2021/05/03 09:20:08;;;;;;;3.90;1.88;;;17.40;99.90;;;;;;5044011;28;20475;-80
2021/05/03 09:22:48;;;;;;;5.97;1.90;;;17.50;99.90;;;;;;5046277;28;20410;-79
2021/05/03 09:25:36;;;;;;;6.05;1.85;;;17.60;99.90;;;;;;5042779;28;20763;-82
2021/05/03 09:28:09;;;;;;;4.47;1.70;;;17.60;99.90;;;;;;5044682;28;20392;-79
2021/05/03 09:30:47;;;;;;;5.75;1.80;;;17.50;99.90;;;;;;5038372;28;20468;-78
2021/05/03 09:33:21;;;;;;;5.75;1.60;;;17.50;99.90;;;;;;5041435;28;20530;-79
2021/05/03 09:35:56;;;;;;;7.80;1.92;;;17.50;99.90;;;;;;5048837;28;20399;-80
2021/05/03 09:38:46;;;;;;;2.58;1.50;;;17.60;99.90;;;;;;5048556;28;20380;-80
2021/05/03 09:41:26;;;;;;;5.55;1.50;;;17.60;99.90;;;;;;5045315;28;20392;-79
2021/05/03 09:43:55;;;;;;;6.75;1.65;;;17.50;99.90;;;;;;5046531;28;20404;-80
2021/05/03 09:46:42;;;;;;;3.00;1.60;;;17.50;99.90;;;;;;5046647;28;20390;-80
2021/05/03 09:49:16;;;;;;;6.13;1.70;;;17.50;99.90;;;;;;5048197;28;20419;-79
2021/05/03 09:51:51;;;;;;;7.07;1.83;;;17.40;99.90;;;;;;5046238;28;20793;-79
2021/05/03 09:54:31;;;;;;;6.47;1.90;;;17.40;99.90;;;;;;5039706;28;20484;-80
2021/05/03 09:57:06;;;;;;;6.57;1.92;;;17.30;99.90;;;;;;5045242;28;20407;-79
2021/05/03 09:59:49;;;;;;;8.57;2.30;;;17.30;99.90;;;;;;5048633;28;20430;-79
2021/05/03 10:02:21;;;;;;;7.47;2.40;;;17.30;99.90;;;;;;5046396;28;20486;-79
2021/05/03 10:04:54;;;;;;;4.70;2.00;;;17.30;99.90;;;;;;5047754;28;20492;-80
2021/05/03 10:07:22;;;;;;;4.55;1.85;;;17.30;99.90;;;;;;5045313;28;20401;-81
2021/05/03 10:09:58;;;;;;;7.93;1.90;;;17.30;99.90;;;;;;5043166;28;20879;-80
2021/05/03 10:12:26;;;;;;;7.05;1.98;;;17.30;99.90;;;;;;5044754;28;20403;-78
2021/05/03 10:14:54;;;;;;;4.65;2.22;;;17.30;99.90;;;;;;5055719;28;21013;-79
2021/05/03 10:17:21;;;;;;;7.88;2.50;;;17.30;99.90;;;;;;5048350;28;20470;-79
2021/05/03 10:19:51;;;;;;;7.22;2.20;;;17.30;99.90;;;;;;5050785;28;20531;-80
2021/05/03 10:22:20;;;;;;;5.60;1.98;;;17.30;99.90;;;;;;5051517;28;20419;-78
2021/05/03 10:24:53;;;;;;;5.05;1.90;;;17.30;99.90;;;;;;5045374;28;20871;-79
2021/05/03 10:27:21;;;;;;;7.40;2.00;;;17.30;99.90;;;;;;5036146;28;20906;-78
2021/05/03 10:30:03;;;;;;;5.20;1.73;;;17.30;99.90;;;;;;5051131;28;20493;-78
2021/05/03 10:32:30;;;;;;;5.03;2.03;;;17.20;99.90;;;;;;5045486;28;20415;-79
2021/05/03 10:34:59;;;;;;;5.40;1.98;;;17.20;99.90;;;;;;5048681;28;20403;-79
2021/05/03 10:37:33;;;;;;;3.00;1.77;;;17.20;99.90;;;;;;5048605;28;20418;-80
2021/05/03 10:40:29;;;;;;;4.72;2.00;;;17.20;99.90;;;;;;5048057;28;20831;-79
2021/05/03 10:43:02;;;;;;;4.72;1.70;;;17.20;99.90;;;;;;5045977;28;20452;-80
2021/05/03 10:53:57;;;;;;;4.88;2.30;;;17.20;99.90;;;;;;5045496;28;20420;-79
2021/05/03 10:56:41;;;;;;;5.53;2.20;;;17.30;99.90;;;;;;5044964;28;20399;-79
2021/05/03 10:59:10;;;;;;;4.82;1.98;;;17.30;99.90;;;;;;5047440;28;20395;-79
2021/05/03 11:02:02;;;;;;;5.33;1.97;;;17.20;99.90;;;;;;5046881;28;20449;-77
2021/05/03 11:04:30;;;;;;;5.73;2.27;;;17.20;99.90;;;;;;5047968;28;20426;-79
2021/05/03 11:06:57;;;;;;;5.75;2.20;;;17.10;99.90;;;;;;5049121;28;20866;-79
2021/05/03 11:11:57;;;;;;;6.32;2.30;;;17.00;99.90;;;;;;5048483;28;20404;-79
2021/05/03 11:14:27;;;;;;;3.72;1.67;;;17.00;99.90;;;;;;5048028;28;20407;-79
2021/05/03 11:17:04;;;;;;;3.83;2.10;;;16.90;99.90;;;;;;5049831;28;20895;-77
2021/05/03 11:20:03;;;;;;;3.67;1.98;;;16.90;99.90;;;;;;5048004;28;20423;-80
2021/05/03 11:22:53;;;;;;;6.23;2.20;;;16.80;99.90;;;;;;5046687;28;20847;-80
2021/05/03 11:25:24;;;;;;;4.47;2.08;;;16.80;99.90;;;;;;5047181;28;20459;-81
2021/05/03 11:28:02;;;;;;;5.38;2.13;;;16.80;99.90;;;;;;5046535;28;20396;-81
2021/05/03 11:30:38;;;;;;;6.47;2.60;;;16.70;99.90;;;;;;5040768;28;20399;-80
2021/05/03 11:33:12;;;;;;;2.92;2.22;;;16.60;99.90;;;;;;5048809;28;20818;-78
2021/05/03 11:35:58;;;;;;;4.70;2.63;;;16.50;99.90;;;;;;5048124;28;20890;-79
2021/05/03 11:41:11;;;;;;;4.07;2.63;;;16.30;99.90;;;;;;5048116;28;20564;-79
2021/05/03 11:46:26;;;;;;;4.00;2.60;;;16.30;99.90;;;;;;5047559;28;20415;-81
2021/05/03 11:48:54;;;;;;;6.67;2.63;;;16.40;99.90;;;;;;5046768;28;20406;-85
2021/05/03 11:51:21;;;;;;;5.30;2.33;;;16.50;99.90;;;;;;5050848;28;20890;-81
2021/05/03 11:53:49;;;;;;;4.35;2.30;;;16.60;99.90;;;;;;5057988;28;20439;-81
2021/05/03 11:56:26;;;;;;;5.63;2.17;;;16.60;99.90;;;;;;5056176;28;20431;-80
2021/05/03 11:58:55;;;;;;;5.47;2.45;;;16.60;99.90;;;;;;5053492;28;20778;-79
2021/05/03 12:01:25;;;;;;;4.45;2.38;;;16.60;99.90;;;;;;5051876;28;20467;-80
2021/05/03 12:03:57;;;;;;;6.82;2.55;;;16.60;99.90;;;;;;5055060;28;20412;-80
2021/05/03 12:06:37;;;;;;;5.00;2.60;;;16.50;99.90;;;;;;5066432;28;20389;-78
2021/05/03 12:09:13;;;;;;;5.13;2.63;;;16.40;99.90;;;;;;5048381;28;20486;-80
2021/05/03 12:12:01;;;;;;;7.03;2.75;;;16.30;99.90;;;;;;5050483;28;20419;-80
2021/05/03 12:14:45;;;;;;;5.25;2.65;;;16.20;99.90;;;;;;5049275;28;20411;-79
2021/05/03 12:17:23;;;;;;;6.30;2.30;;;16.30;99.90;;;;;;5049809;28;20400;-80
2021/05/03 12:19:56;;;;;;;6.70;2.30;;;16.30;99.90;;;;;;5049119;28;20450;-80
2021/05/03 12:22:25;;;;;;;3.90;2.30;;;16.40;99.90;;;;;;5047014;28;20462;-81
2021/05/03 12:24:59;;;;;;;4.82;2.50;;;16.30;99.90;;;;;;5046908;28;20404;-80
2021/05/03 12:27:29;;;;;;;5.63;2.85;;;16.30;99.90;;;;;;5046258;28;20908;-81
2021/05/03 12:29:57;;;;;;;5.37;3.40;;;16.10;99.90;;;;;;5047171;28;20445;-81
2021/05/03 12:32:30;;;;;;;6.30;3.20;;;16.10;99.90;;;;;;5047786;28;20407;-79
2021/05/03 12:34:57;;;;;;;5.50;3.00;;;16.00;99.90;;;;;;5046657;28;20756;-80
2021/05/03 12:37:29;;;;;;;5.40;2.90;;;16.00;99.90;;;;;;5045009;28;21656;-80
2021/05/03 12:39:58;;;;;;;5.45;2.75;;;16.10;99.90;;;;;;5047963;28;20407;-81
2021/05/03 12:42:50;;;;;;;6.05;2.85;;;16.10;99.90;;;;;;5046702;28;20392;-81
2021/05/03 12:45:34;;;;;;;7.15;2.70;;;16.20;99.90;;;;;;5048124;28;20462;-80
2021/05/03 12:50:54;;;;;;;6.03;3.07;;;16.30;99.90;;;;;;5046302;28;20399;-79
2021/05/03 12:53:28;;;;;;;4.70;2.63;;;16.30;99.90;;;;;;5048241;28;20400;-81
2021/05/03 12:56:13;;;;;;;5.63;2.60;;;16.40;99.90;;;;;;5048312;28;20463;-80
2021/05/03 12:58:59;;;;;;;6.83;2.63;;;16.40;99.90;;;;;;5043837;28;20398;-81
2021/05/03 13:04:33;;;;;;;4.00;2.67;;;16.30;99.90;;;;;;5047538;28;20384;-79
2021/05/03 13:09:52;;;;;;;6.03;2.60;;;16.20;99.90;;;;;;5045511;28;20530;-81
2021/05/03 13:29:43;;;;;;;4.75;2.30;;;16.50;99.90;;;;;;5048703;28;20387;-80
2021/05/03 13:32:14;;;;;;;5.43;2.47;;;16.40;99.90;;;;;;5044489;28;20487;-80
2021/05/03 13:34:41;;;;;;;4.18;2.53;;;16.30;99.90;;;;;;5048695;28;20452;-80
2021/05/03 13:37:09;;;;;;;5.57;2.53;;;16.20;99.90;;;;;;5047973;28;20515;-80
2021/05/03 13:39:37;;;;;;;5.00;2.60;;;16.10;99.90;;;;;;5045198;28;20890;-80
2021/05/03 13:42:06;;;;;;;5.47;2.67;;;16.10;99.90;;;;;;5048601;28;20387;-80
2021/05/03 13:44:33;;;;;;;5.97;2.53;;;16.00;99.90;;;;;;5049027;28;20751;-80
2021/05/03 13:47:02;;;;;;;4.73;2.43;;;16.00;99.90;;;;;;5047352;28;20771;-80
2021/05/03 13:49:33;;;;;;;4.85;2.88;;;16.00;99.90;;;;;;5047439;28;20492;-80
2021/05/03 13:52:01;;;;;;;5.30;2.67;;;16.00;99.90;;;;;;5046263;28;20846;-80
2021/05/03 13:54:28;;;;;;;6.60;2.58;;;15.90;99.90;;;;;;5050422;28;20418;-80